Time;durP1;ratioP1;P1;durP2;ratioP2;P2;SDS_P1;SDS_P2;PMS_P1;PMS_P2;Temp;Humidity;BMP_temperature;BMP_pressure;BME280_temperature;BME280_humidity;BME280_pressure;Samples;Min_cycle;Max_cycle;Signal;HPM_P1;HPM_P2
2022/04/06 04:10:47;;;;;;;0.85;0.85;;;6.10;99.90;;;;;;5623470;23;20242;-66
2022/04/06 04:13:14;;;;;;;1.00;1.00;;;6.10;99.90;;;;;;4994094;28;20210;-65
2022/04/06 04:15:40;;;;;;;0.80;0.80;;;6.10;99.90;;;;;;4994047;28;20629;-65
2022/04/06 04:18:07;;;;;;;0.90;0.90;;;6.10;99.90;;;;;;4994313;28;20242;-65
2022/04/06 04:20:34;;;;;;;0.98;0.98;;;6.10;99.90;;;;;;4994077;28;20314;-65
2022/04/06 04:23:01;;;;;;;0.80;0.80;;;6.10;99.90;;;;;;4994048;28;20614;-65
2022/04/06 04:25:28;;;;;;;1.00;1.00;;;6.10;99.90;;;;;;4994237;28;20249;-66
2022/04/06 04:27:56;;;;;;;0.80;0.80;;;6.10;99.90;;;;;;4994523;28;20204;-69
2022/04/06 04:30:23;;;;;;;1.00;1.00;;;6.10;99.90;;;;;;4994355;28;20229;-64
2022/04/06 04:32:50;;;;;;;0.82;0.82;;;6.00;99.90;;;;;;4994250;28;20250;-64
2022/04/06 04:35:16;;;;;;;0.80;0.80;;;6.00;99.90;;;;;;4994237;28;20230;-64
2022/04/06 04:37:43;;;;;;;0.82;0.82;;;6.10;99.90;;;;;;4993768;28;20289;-63
2022/04/06 04:40:11;;;;;;;0.80;0.80;;;6.00;99.90;;;;;;4994316;28;20223;-64
2022/04/06 04:42:37;;;;;;;0.65;0.65;;;6.00;99.90;;;;;;4993959;28;20289;-66
2022/04/06 04:45:08;;;;;;;0.90;0.90;;;6.00;99.90;;;;;;4994064;28;20571;-71
2022/04/06 04:47:35;;;;;;;0.80;0.80;;;6.00;99.90;;;;;;4993737;28;20189;-67
2022/04/06 04:50:03;;;;;;;1.02;1.02;;;6.00;99.90;;;;;;4993862;28;20575;-66
2022/04/06 04:52:30;;;;;;;0.82;0.82;;;6.00;99.90;;;;;;4993605;28;20589;-67
2022/04/06 04:54:56;;;;;;;0.70;0.70;;;6.00;99.90;;;;;;5017189;23;20226;-66
2022/04/06 04:57:23;;;;;;;0.90;0.90;;;6.00;99.90;;;;;;4993042;28;20202;-66
2022/04/06 04:59:52;;;;;;;0.73;0.73;;;6.00;99.90;;;;;;4992705;28;20630;-66
2022/04/06 05:02:20;;;;;;;0.70;0.70;;;6.00;99.90;;;;;;4992973;28;20225;-66
2022/04/06 05:04:47;;;;;;;0.80;0.80;;;6.00;99.90;;;;;;4992931;28;20314;-66
2022/04/06 05:07:14;;;;;;;0.90;0.90;;;6.00;99.90;;;;;;4992968;28;20293;-66
2022/04/06 05:09:41;;;;;;;0.80;0.80;;;6.10;99.90;;;;;;4996473;28;20202;-66
2022/04/06 05:12:09;;;;;;;0.80;0.80;;;6.10;99.90;;;;;;4996114;28;20705;-66
2022/04/06 05:14:36;;;;;;;0.70;0.70;;;6.10;99.90;;;;;;4996117;28;20608;-66
2022/04/06 05:17:03;;;;;;;0.68;0.68;;;6.20;99.90;;;;;;4996800;28;20298;-66
2022/04/06 05:19:32;;;;;;;0.82;0.82;;;6.20;99.90;;;;;;4995950;28;20671;-66
2022/04/06 05:21:59;;;;;;;0.70;0.70;;;6.20;99.90;;;;;;4995929;28;20640;-66
2022/04/06 05:24:26;;;;;;;0.80;0.80;;;6.20;99.90;;;;;;4996046;28;20231;-66
2022/04/06 05:26:53;;;;;;;0.80;0.80;;;6.30;99.90;;;;;;4996017;28;20662;-66
2022/04/06 05:29:19;;;;;;;0.90;0.90;;;6.30;99.90;;;;;;4995977;28;20298;-66
2022/04/06 05:31:46;;;;;;;0.90;0.90;;;6.40;99.90;;;;;;4996315;28;20236;-65
2022/04/06 05:34:14;;;;;;;0.82;0.82;;;6.40;99.90;;;;;;4995985;28;20254;-65
2022/04/06 05:36:42;;;;;;;0.73;0.73;;;6.40;99.90;;;;;;5000271;28;20195;-66
2022/04/06 05:39:10;;;;;;;0.90;0.90;;;6.50;99.90;;;;;;5000285;28;20202;-66
2022/04/06 05:41:37;;;;;;;0.98;0.98;;;6.50;99.90;;;;;;4999636;28;20202;-66
2022/04/06 05:44:05;;;;;;;0.90;0.90;;;6.60;99.90;;;;;;4999785;28;20309;-66
2022/04/06 05:46:32;;;;;;;0.90;0.90;;;6.60;99.90;;;;;;5000100;28;20203;-66
2022/04/06 05:49:00;;;;;;;0.80;0.80;;;6.70;99.90;;;;;;5000472;28;20203;-66
2022/04/06 05:51:27;;;;;;;1.30;0.90;;;6.70;99.90;;;;;;5000155;28;20641;-66
2022/04/06 05:53:56;;;;;;;0.90;0.90;;;6.80;99.90;;;;;;4945917;28;1566106;-66
2022/04/06 05:56:23;;;;;;;1.00;1.00;;;7.00;99.90;;;;;;5000649;28;20237;-66
2022/04/06 05:58:50;;;;;;;0.90;0.90;;;7.10;99.90;;;;;;5000674;28;20215;-66
2022/04/06 06:01:18;;;;;;;1.40;1.40;;;7.30;99.90;;;;;;5000900;28;20207;-66
2022/04/06 06:03:45;;;;;;;1.05;1.05;;;7.40;99.90;;;;;;5001401;28;20202;-66
2022/04/06 06:06:12;;;;;;;3.05;1.65;;;7.50;99.90;;;;;;5001944;28;20307;-66
2022/04/06 06:08:40;;;;;;;2.58;1.90;;;7.60;99.90;;;;;;5001395;28;20226;-66
2022/04/06 06:11:09;;;;;;;2.83;2.30;;;7.70;99.90;;;;;;5001186;28;20773;-66
2022/04/06 06:13:36;;;;;;;2.22;2.13;;;7.70;99.90;;;;;;5001202;28;20209;-66
2022/04/06 06:16:05;;;;;;;3.90;2.28;;;7.70;99.90;;;;;;5000856;28;20302;-66
2022/04/06 06:18:33;;;;;;;3.42;2.60;;;7.80;99.90;;;;;;5000750;28;20203;-67
2022/04/06 06:21:01;;;;;;;2.78;2.58;;;8.80;99.90;;;;;;5002086;28;20214;-66
2022/04/06 06:23:28;;;;;;;3.33;3.03;;;9.30;99.90;;;;;;5002254;28;20203;-66
2022/04/06 06:25:56;;;;;;;2.70;2.50;;;10.40;99.90;;;;;;5001873;28;20309;-66
2022/04/06 06:28:26;;;;;;;2.70;2.60;;;11.60;99.90;;;;;;5002202;28;20609;-66
2022/04/06 06:30:53;;;;;;;2.63;2.42;;;12.70;99.90;;;;;;5001825;28;20649;-66
2022/04/06 06:33:20;;;;;;;2.08;1.98;;;13.10;99.90;;;;;;5001111;28;20277;-66
2022/04/06 06:35:47;;;;;;;2.40;2.13;;;13.00;99.90;;;;;;5001570;28;20278;-66
2022/04/06 06:38:15;;;;;;;1.88;1.83;;;12.70;99.90;;;;;;5002543;28;20202;-66
2022/04/06 06:40:42;;;;;;;1.65;1.63;;;12.40;99.90;;;;;;4999532;28;20289;-66
2022/04/06 06:43:08;;;;;;;1.77;1.75;;;12.20;99.90;;;;;;4997937;28;20624;-66
2022/04/06 06:45:37;;;;;;;1.80;1.75;;;12.00;99.90;;;;;;4996036;28;20701;-66
2022/04/06 06:48:05;;;;;;;1.90;1.90;;;11.70;99.90;;;;;;4996001;28;20293;-67
2022/04/06 06:50:31;;;;;;;1.80;1.70;;;11.50;99.90;;;;;;4996282;28;20234;-66
2022/04/06 06:52:58;;;;;;;1.55;1.50;;;11.50;99.90;;;;;;4996129;28;20218;-66
2022/04/06 06:55:25;;;;;;;1.63;1.55;;;11.60;99.90;;;;;;4995806;28;20252;-66
2022/04/06 06:57:52;;;;;;;1.60;1.55;;;11.60;99.90;;;;;;4996280;28;20572;-66
2022/04/06 07:00:20;;;;;;;1.88;1.77;;;11.80;99.90;;;;;;4996395;28;20293;-65
2022/04/06 07:02:48;;;;;;;1.55;1.55;;;12.00;99.90;;;;;;4995878;28;20245;-66
2022/04/06 07:05:15;;;;;;;1.40;1.40;;;11.90;99.90;;;;;;4995862;28;20262;-67
2022/04/06 07:07:49;;;;;;;1.15;1.15;;;11.90;99.90;;;;;;4995449;28;20294;-67
2022/04/06 07:10:16;;;;;;;1.33;1.33;;;11.70;99.90;;;;;;4995608;28;20669;-67
2022/04/06 07:12:43;;;;;;;1.35;1.35;;;11.60;99.90;;;;;;4995279;28;20234;-67
2022/04/06 07:15:10;;;;;;;1.40;1.40;;;11.70;99.90;;;;;;4995510;28;20235;-67
2022/04/06 07:17:37;;;;;;;1.33;1.33;;;11.80;99.90;;;;;;4995895;28;20207;-67
2022/04/06 07:20:07;;;;;;;1.67;1.58;;;11.80;99.90;;;;;;4995849;28;20289;-67
2022/04/06 07:22:34;;;;;;;1.00;1.00;;;11.80;99.90;;;;;;4995702;28;20205;-67
2022/04/06 07:25:00;;;;;;;1.00;1.00;;;11.90;99.90;;;;;;4995527;28;20223;-67
2022/04/06 07:27:27;;;;;;;1.00;1.00;;;12.00;99.90;;;;;;4995177;28;20293;-67
2022/04/06 07:29:54;;;;;;;1.10;1.10;;;12.10;99.90;;;;;;4995094;28;20241;-67
2022/04/06 07:32:21;;;;;;;1.20;1.20;;;12.00;99.90;;;;;;4994589;28;20712;-67
2022/04/06 07:34:48;;;;;;;1.15;1.10;;;12.10;99.90;;;;;;4995307;28;20403;-67
2022/04/06 07:37:16;;;;;;;0.90;0.90;;;12.80;99.90;;;;;;4995364;28;20306;-67
2022/04/06 07:39:43;;;;;;;0.70;0.70;;;14.60;99.90;;;;;;4995185;28;20229;-67
2022/04/06 07:42:10;;;;;;;0.68;0.68;;;15.80;99.90;;;;;;4995437;28;20293;-67
2022/04/06 07:44:36;;;;;;;0.70;0.70;;;16.90;90.00;;;;;;4994927;28;20314;-67
2022/04/06 07:47:04;;;;;;;0.60;0.60;;;18.00;72.30;;;;;;4994848;28;20527;-67
2022/04/06 07:49:31;;;;;;;0.43;0.43;;;18.10;63.20;;;;;;4994677;28;20678;-67
2022/04/06 07:51:58;;;;;;;0.77;0.77;;;18.30;69.70;;;;;;4994848;28;20292;-67
2022/04/06 07:54:26;;;;;;;0.50;0.50;;;18.90;62.70;;;;;;4994732;28;20798;-67
2022/04/06 07:56:53;;;;;;;0.77;0.55;;;19.30;57.40;;;;;;4994704;28;20289;-67
2022/04/06 07:59:20;;;;;;;0.50;0.50;;;19.80;58.40;;;;;;4994874;28;20245;-67
2022/04/06 08:01:47;;;;;;;0.40;0.40;;;20.80;52.70;;;;;;4994677;28;20277;-67
2022/04/06 08:04:14;;;;;;;0.43;0.43;;;;;;;;;;4995186;28;20228;-67
2022/04/06 08:06:41;;;;;;;0.30;0.30;;;;;;;;;;4994695;28;20228;-67
2022/04/06 08:09:08;;;;;;;0.40;0.40;;;22.40;53.60;;;;;;4994282;28;20202;-67
2022/04/06 08:11:36;;;;;;;0.30;0.30;;;;;;;;;;4994206;28;20206;-67
2022/04/06 08:14:04;;;;;;;0.30;0.30;;;;;;;;;;4994288;28;20230;-67
2022/04/06 08:16:31;;;;;;;0.30;0.30;;;;;;;;;;4994200;28;20300;-67
2022/04/06 08:18:58;;;;;;;0.28;0.28;;;;;;;;;;4994532;28;20289;-67
2022/04/06 08:21:25;;;;;;;0.28;0.28;;;;;;;;;;4994725;28;20198;-67
2022/04/06 08:23:52;;;;;;;1.55;0.30;;;;;;;;;;4994258;28;20208;-67
2022/04/06 08:26:20;;;;;;;0.30;0.30;;;;;;;;;;4994797;28;20202;-67
2022/04/06 08:28:49;;;;;;;0.38;0.38;;;;;;;;;;4994169;28;20622;-67
2022/04/06 08:31:16;;;;;;;0.30;0.30;;;;;;;;;;4994678;28;20253;-67
2022/04/06 08:33:44;;;;;;;0.40;0.40;;;;;;;;;;4994326;28;20219;-67
2022/04/06 08:36:12;;;;;;;0.50;0.50;;;;;;;;;;4994310;28;20210;-67
2022/04/06 08:38:39;;;;;;;0.60;0.40;;;;;;;;;;4994281;28;20226;-67
2022/04/06 08:41:07;;;;;;;0.70;0.70;;;;;;;;;;4993971;28;20692;-67
2022/04/06 08:43:35;;;;;;;1.25;0.60;;;;;;;;;;4994204;28;20200;-67
2022/04/06 08:46:03;;;;;;;0.63;0.63;;;17.90;57.00;;;;;;4994303;28;20202;-67
2022/04/06 08:48:30;;;;;;;0.45;0.45;;;17.20;59.90;;;;;;4994349;28;20256;-67
2022/04/06 08:51:00;;;;;;;0.60;0.60;;;16.80;68.10;;;;;;4994236;28;20202;-68
2022/04/06 08:53:27;;;;;;;0.57;0.57;;;16.30;70.60;;;;;;4994080;28;20218;-67
2022/04/06 08:55:54;;;;;;;0.50;0.50;;;15.90;79.00;;;;;;4994126;28;20234;-67
2022/04/06 08:58:20;;;;;;;0.50;0.50;;;15.70;86.50;;;;;;4994227;28;20302;-67
2022/04/06 09:00:47;;;;;;;0.40;0.40;;;15.70;90.20;;;;;;4993933;28;20289;-67
2022/04/06 09:03:16;;;;;;;0.50;0.50;;;15.80;88.10;;;;;;4993900;28;20290;-67
2022/04/06 09:05:43;;;;;;;0.50;0.50;;;15.90;90.40;;;;;;4993659;28;20227;-67
2022/04/06 09:08:10;;;;;;;0.90;0.90;;;16.00;85.90;;;;;;4993882;28;20203;-67
2022/04/06 09:10:40;;;;;;;0.93;0.80;;;16.20;84.40;;;;;;4993531;28;20218;-67
2022/04/06 09:13:11;;;;;;;1.38;0.70;;;16.20;84.20;;;;;;4993827;28;20277;-67
2022/04/06 09:15:39;;;;;;;0.40;0.40;;;16.30;84.50;;;;;;4993814;28;20261;-68
2022/04/06 09:18:06;;;;;;;0.70;0.70;;;16.10;80.80;;;;;;4993769;28;20198;-67
2022/04/06 09:20:34;;;;;;;0.55;0.55;;;16.00;86.70;;;;;;4993853;28;20209;-67
2022/04/06 09:23:02;;;;;;;0.25;0.25;;;16.10;85.70;;;;;;4993660;28;20225;-67
2022/04/06 09:25:34;;;;;;;0.30;0.30;;;16.80;86.00;;;;;;4994132;28;20261;-68
2022/04/06 09:28:07;;;;;;;0.55;0.55;;;16.40;86.10;;;;;;4994228;28;20195;-67
2022/04/06 09:30:35;;;;;;;0.30;0.30;;;16.00;90.10;;;;;;4993635;28;20199;-67
2022/04/06 09:33:04;;;;;;;0.30;0.30;;;;;;;;;;4993819;28;20231;-67
2022/04/06 09:35:34;;;;;;;0.45;0.45;;;;;;;;;;4993563;28;20615;-67
2022/04/06 09:38:12;;;;;;;0.40;0.40;;;;;;;;;;4993714;28;20213;-69
2022/04/06 09:40:40;;;;;;;0.30;0.30;;;;;;;;;;4993372;28;20191;-68
2022/04/06 09:43:07;;;;;;;0.40;0.40;;;;;;;;;;4993647;28;20286;-68
2022/04/06 09:48:19;;;;;;;0.30;0.30;;;;;;;;;;4993875;28;20178;-68
2022/04/06 09:50:57;;;;;;;0.40;0.40;;;;;;;;;;4993616;28;20206;-68
2022/04/06 09:53:27;;;;;;;0.40;0.40;;;;;;;;;;4993942;28;20222;-68
2022/04/06 09:55:57;;;;;;;0.30;0.30;;;;;;;;;;4996809;28;20578;-68
2022/04/06 09:58:25;;;;;;;0.30;0.30;;;;;;;;;;4997146;28;20190;-68
2022/04/06 10:00:53;;;;;;;0.25;0.25;;;16.70;92.30;;;;;;4996438;28;20246;-67
2022/04/06 10:03:22;;;;;;;0.35;0.35;;;17.00;72.80;;;;;;4997105;28;20195;-67
2022/04/06 10:05:51;;;;;;;0.40;0.40;;;17.20;70.40;;;;;;4996727;28;20222;-67
2022/04/06 10:08:22;;;;;;;0.40;0.40;;;17.20;66.40;;;;;;4997280;28;20202;-67
2022/04/06 10:10:55;;;;;;;0.40;0.40;;;17.30;65.10;;;;;;4997814;28;20574;-67
2022/04/06 10:13:24;;;;;;;0.40;0.40;;;17.30;62.30;;;;;;4997525;28;20210;-67
2022/04/06 10:15:51;;;;;;;1.75;0.40;;;17.50;66.90;;;;;;4997107;28;20254;-67
2022/04/06 10:18:19;;;;;;;0.38;0.38;;;17.50;64.10;;;;;;4997599;28;20305;-67
2022/04/06 10:20:52;;;;;;;0.38;0.38;;;17.40;61.70;;;;;;4996980;28;20250;-67
2022/04/06 10:23:33;;;;;;;0.75;0.25;;;17.30;62.80;;;;;;4997203;28;20190;-67
2022/04/06 10:26:07;;;;;;;1.17;0.40;;;17.10;69.70;;;;;;4996415;28;20553;-67
2022/04/06 10:28:34;;;;;;;0.50;0.50;;;17.10;65.40;;;;;;4996430;28;20197;-67
2022/04/06 10:31:16;;;;;;;0.30;0.30;;;17.00;66.20;;;;;;4996204;28;20198;-67
2022/04/06 10:33:43;;;;;;;0.38;0.38;;;16.70;63.50;;;;;;4995992;28;20293;-67
2022/04/06 10:36:18;;;;;;;0.30;0.30;;;16.50;62.30;;;;;;4996305;28;20198;-67
2022/04/06 10:39:10;;;;;;;0.38;0.38;;;16.40;63.90;;;;;;4996535;28;20206;-67
2022/04/06 10:41:41;;;;;;;0.30;0.30;;;16.20;63.80;;;;;;4996510;28;20206;-67
2022/04/06 10:44:08;;;;;;;0.30;0.30;;;16.00;67.80;;;;;;4996416;28;20226;-67
2022/04/06 10:46:38;;;;;;;0.68;0.40;;;15.90;70.30;;;;;;4996715;28;20241;-67
2022/04/06 10:49:16;;;;;;;0.30;0.30;;;15.80;72.30;;;;;;4996425;28;20207;-67
2022/04/06 10:51:45;;;;;;;0.47;0.47;;;15.90;74.30;;;;;;4996705;28;20187;-68
2022/04/06 10:54:45;;;;;;;0.70;0.70;;;16.10;69.00;;;;;;4995773;28;20265;-68
2022/04/06 10:57:13;;;;;;;0.40;0.40;;;16.10;67.80;;;;;;4995764;28;20203;-68
2022/04/06 10:59:40;;;;;;;0.32;0.32;;;16.10;64.30;;;;;;4995901;28;20213;-68
2022/04/06 11:02:19;;;;;;;1.27;0.50;;;16.10;66.40;;;;;;4995895;28;20237;-68
2022/04/06 11:04:47;;;;;;;0.45;0.45;;;16.00;69.10;;;;;;4995152;28;20218;-68
2022/04/06 11:07:17;;;;;;;0.40;0.40;;;16.10;72.10;;;;;;4994996;28;20670;-68
2022/04/06 11:12:31;;;;;;;0.50;0.50;;;;;;;;;;4996232;28;20595;-68
2022/04/06 11:15:16;;;;;;;0.55;0.55;;;;;;;;;;4995920;28;20253;-68
2022/04/06 11:17:44;;;;;;;0.45;0.45;;;;;;;;;;4996114;28;20214;-68
2022/04/06 11:20:12;;;;;;;0.40;0.40;;;;;;;;;;4995918;28;20206;-68
2022/04/06 11:22:42;;;;;;;0.30;0.30;;;16.60;67.10;;;;;;4996443;28;20199;-67
2022/04/06 11:25:11;;;;;;;0.30;0.30;;;16.40;64.00;;;;;;4995397;28;20223;-68
2022/04/06 11:27:41;;;;;;;0.22;0.22;;;16.40;62.10;;;;;;4995146;28;20562;-68
2022/04/06 11:30:12;;;;;;;0.28;0.28;;;16.30;56.20;;;;;;4995961;28;20202;-68
2022/04/06 11:32:42;;;;;;;0.70;0.20;;;16.20;57.80;;;;;;4995637;28;20187;-68
2022/04/06 11:35:10;;;;;;;0.20;0.20;;;16.20;56.90;;;;;;4995003;28;20337;-68
2022/04/06 11:37:42;;;;;;;1.98;0.30;;;16.20;56.60;;;;;;4995844;28;20206;-68
2022/04/06 11:40:11;;;;;;;0.43;0.38;;;16.30;56.30;;;;;;4995101;28;20693;-67
2022/04/06 11:42:40;;;;;;;0.30;0.30;;;16.40;57.60;;;;;;4995217;28;20206;-68
2022/04/06 11:45:09;;;;;;;0.20;0.20;;;16.40;57.90;;;;;;4995573;28;20305;-68
2022/04/06 11:47:38;;;;;;;0.30;0.30;;;16.60;58.70;;;;;;4994963;28;20275;-68
2022/04/06 11:50:12;;;;;;;0.45;0.30;;;16.60;56.40;;;;;;4995061;28;20209;-67
2022/04/06 11:52:41;;;;;;;0.20;0.20;;;16.70;57.50;;;;;;4995130;28;20206;-67
2022/04/06 11:55:08;;;;;;;0.30;0.30;;;16.90;57.40;;;;;;4994848;28;20231;-68
2022/04/06 11:57:37;;;;;;;0.30;0.30;;;17.00;55.90;;;;;;4994887;28;20297;-69
2022/04/06 12:00:08;;;;;;;0.25;0.25;;;17.10;56.30;;;;;;4994814;28;20671;-68
2022/04/06 12:02:49;;;;;;;0.30;0.30;;;17.20;58.00;;;;;;4994924;28;20191;-68
2022/04/06 12:05:17;;;;;;;0.22;0.22;;;17.30;56.20;;;;;;4995041;28;20218;-68
2022/04/06 12:07:44;;;;;;;0.30;0.30;;;17.30;55.90;;;;;;4994446;28;20213;-68
2022/04/06 12:10:11;;;;;;;0.30;0.30;;;17.30;55.20;;;;;;4994730;28;20293;-68
2022/04/06 12:12:39;;;;;;;0.65;0.30;;;17.30;55.50;;;;;;4994572;28;20207;-68
2022/04/06 12:15:09;;;;;;;0.30;0.30;;;17.40;54.90;;;;;;4994883;28;20249;-68
2022/04/06 12:17:38;;;;;;;0.30;0.30;;;17.40;55.90;;;;;;4994218;28;20662;-69
2022/04/06 12:20:24;;;;;;;0.30;0.30;;;17.30;54.80;;;;;;4995152;28;20202;-69
2022/04/06 12:23:01;;;;;;;0.95;0.30;;;17.20;55.90;;;;;;4994952;28;20222;-69
2022/04/06 12:25:29;;;;;;;0.40;0.40;;;17.10;55.90;;;;;;4994901;28;20222;-69
2022/04/06 12:28:18;;;;;;;0.30;0.30;;;16.90;56.80;;;;;;4994557;28;20210;-69
2022/04/06 12:30:58;;;;;;;0.30;0.30;;;16.80;59.70;;;;;;4994233;28;20190;-69
2022/04/06 12:33:42;;;;;;;0.30;0.30;;;16.70;57.30;;;;;;4994307;28;20631;-68
2022/04/06 12:36:12;;;;;;;0.30;0.30;;;16.60;56.90;;;;;;4994552;28;20217;-69
2022/04/06 12:38:40;;;;;;;0.30;0.30;;;16.50;57.80;;;;;;4994399;28;20204;-68
2022/04/06 12:41:09;;;;;;;0.20;0.20;;;16.50;58.50;;;;;;4994391;28;20206;-68
2022/04/06 12:43:38;;;;;;;0.30;0.30;;;16.60;58.10;;;;;;4994268;28;20253;-68
2022/04/06 12:46:06;;;;;;;0.20;0.20;;;16.60;58.10;;;;;;4994528;28;20239;-70
2022/04/06 12:48:33;;;;;;;0.80;0.30;;;16.50;57.80;;;;;;4994502;28;20198;-68
2022/04/06 12:51:20;;;;;;;0.25;0.25;;;16.50;57.60;;;;;;4994474;28;20569;-68
2022/04/06 12:53:51;;;;;;;0.30;0.30;;;16.60;56.30;;;;;;4994006;28;20206;-69
2022/04/06 12:56:22;;;;;;;0.95;0.20;;;16.60;55.50;;;;;;4994412;28;20187;-69
2022/04/06 12:59:08;;;;;;;0.20;0.20;;;16.70;55.80;;;;;;4993797;28;20218;-68
2022/04/06 13:01:44;;;;;;;0.20;0.20;;;16.70;55.90;;;;;;4993311;28;20206;-68
2022/04/06 13:04:11;;;;;;;0.25;0.25;;;16.70;55.80;;;;;;4994141;28;20214;-69
2022/04/06 13:06:38;;;;;;;0.20;0.20;;;16.60;54.90;;;;;;4994090;28;20202;-69
2022/04/06 13:09:05;;;;;;;0.30;0.30;;;16.50;54.50;;;;;;4994194;28;20209;-68
2022/04/06 13:11:32;;;;;;;0.30;0.30;;;16.40;54.70;;;;;;4993719;28;20577;-68
2022/04/06 13:13:59;;;;;;;0.45;0.20;;;16.20;56.50;;;;;;4994227;28;20317;-69
2022/04/06 13:16:28;;;;;;;0.30;0.30;;;16.20;57.30;;;;;;4993942;28;20213;-69
2022/04/06 13:18:56;;;;;;;0.25;0.25;;;16.10;56.60;;;;;;4993682;28;20293;-69
2022/04/06 13:21:25;;;;;;;0.20;0.20;;;16.00;57.20;;;;;;4993731;28;20671;-68
2022/04/06 13:23:52;;;;;;;0.30;0.30;;;15.90;57.60;;;;;;4993873;28;20287;-68
2022/04/06 13:26:19;;;;;;;0.30;0.30;;;15.70;58.40;;;;;;4994620;28;20209;-68
2022/04/06 13:28:47;;;;;;;0.40;0.40;;;15.70;60.60;;;;;;4994766;28;20663;-68
2022/04/06 13:31:14;;;;;;;0.30;0.30;;;15.60;61.20;;;;;;4997568;28;20238;-68
2022/04/06 13:33:41;;;;;;;0.30;0.30;;;15.50;61.40;;;;;;4997133;28;20209;-68
2022/04/06 13:36:09;;;;;;;0.75;0.30;;;15.50;61.70;;;;;;4997442;28;20212;-69
2022/04/06 13:38:36;;;;;;;0.30;0.30;;;15.50;61.00;;;;;;4997506;28;20238;-69
2022/04/06 13:41:04;;;;;;;0.98;0.30;;;15.40;61.60;;;;;;4997219;28;20293;-69
2022/04/06 13:43:31;;;;;;;0.25;0.25;;;15.40;62.40;;;;;;4997465;28;20202;-69
2022/04/06 13:45:58;;;;;;;0.43;0.40;;;15.30;60.30;;;;;;4998080;28;20560;-69
2022/04/06 13:48:25;;;;;;;0.30;0.30;;;15.30;58.70;;;;;;4998127;28;20202;-69
2022/04/06 13:50:52;;;;;;;0.20;0.20;;;15.30;58.00;;;;;;4997136;28;20692;-69
2022/04/06 13:53:20;;;;;;;0.30;0.30;;;15.20;57.10;;;;;;4997184;28;20294;-70
2022/04/06 13:55:47;;;;;;;0.30;0.30;;;15.20;57.70;;;;;;4997249;28;20318;-68
2022/04/06 13:58:14;;;;;;;0.30;0.30;;;15.10;57.40;;;;;;4997273;28;20249;-68
2022/04/06 14:00:41;;;;;;;0.40;0.32;;;15.00;57.10;;;;;;4997107;28;20234;-69
2022/04/06 14:03:08;;;;;;;0.35;0.35;;;15.00;55.80;;;;;;4996982;28;20198;-69
2022/04/06 14:05:36;;;;;;;0.20;0.20;;;14.90;56.10;;;;;;4998868;28;20245;-73
2022/04/06 14:08:03;;;;;;;0.30;0.30;;;14.90;56.90;;;;;;5001382;28;20214;-69
2022/04/06 14:10:31;;;;;;;0.75;0.75;;;14.90;57.30;;;;;;5000981;28;20199;-68
2022/04/06 14:12:59;;;;;;;0.70;0.70;;;14.90;56.50;;;;;;5001613;28;20233;-69
2022/04/06 14:15:26;;;;;;;0.70;0.70;;;14.80;56.90;;;;;;5000441;28;20223;-69
2022/04/06 14:17:53;;;;;;;0.70;0.70;;;14.90;56.20;;;;;;5001580;28;20202;-69
2022/04/06 14:20:21;;;;;;;0.50;0.50;;;14.90;55.40;;;;;;5001680;28;20701;-69
2022/04/06 14:22:48;;;;;;;0.50;0.50;;;15.00;56.00;;;;;;5001453;28;20225;-69
2022/04/06 14:25:16;;;;;;;0.73;0.73;;;15.10;55.60;;;;;;5001682;28;20285;-69
2022/04/06 14:27:45;;;;;;;0.47;0.47;;;15.20;56.00;;;;;;5000343;28;20207;-69
2022/04/06 14:30:13;;;;;;;0.55;0.55;;;15.40;56.50;;;;;;5000839;28;20241;-70
2022/04/06 14:32:40;;;;;;;0.40;0.40;;;15.40;55.90;;;;;;5000826;28;20202;-70
2022/04/06 14:35:08;;;;;;;0.50;0.50;;;15.50;56.00;;;;;;5001180;28;20321;-70
2022/04/06 14:37:38;;;;;;;0.60;0.60;;;15.50;57.40;;;;;;5001372;28;20207;-69
2022/04/06 14:40:08;;;;;;;0.40;0.40;;;15.40;58.20;;;;;;5000622;28;20190;-69
2022/04/06 14:42:35;;;;;;;1.25;1.25;;;15.40;58.70;;;;;;5000110;28;20210;-70
2022/04/06 14:45:06;;;;;;;4.35;4.00;;;15.20;59.70;;;;;;5000970;28;20529;-69
2022/04/06 14:47:33;;;;;;;3.95;3.65;;;15.10;60.40;;;;;;5000503;28;20184;-69
2022/04/06 14:50:00;;;;;;;3.08;2.97;;;15.10;62.60;;;;;;5000319;28;20202;-69
2022/04/06 14:52:28;;;;;;;1.95;1.90;;;14.90;63.50;;;;;;5002037;28;20285;-70
2022/04/06 14:54:55;;;;;;;0.90;0.90;;;14.80;62.20;;;;;;5000491;28;20248;-69
2022/04/06 14:57:22;;;;;;;0.60;0.60;;;;;;;;;;5000784;28;20207;-69
2022/04/06 14:59:50;;;;;;;0.55;0.55;;;14.40;63.30;;;;;;5002156;28;20207;-69
2022/04/06 15:02:18;;;;;;;0.30;0.30;;;14.30;65.70;;;;;;4998314;28;20233;-68
2022/04/06 15:04:46;;;;;;;0.50;0.50;;;14.40;66.70;;;;;;4995344;28;20638;-68
2022/04/06 15:07:17;;;;;;;0.30;0.30;;;14.30;66.10;;;;;;4995690;28;20215;-68
2022/04/06 15:09:44;;;;;;;0.40;0.40;;;14.30;65.00;;;;;;4996217;28;20210;-68
2022/04/06 15:12:11;;;;;;;0.57;0.20;;;14.20;65.30;;;;;;4996016;28;20202;-68
2022/04/06 15:14:38;;;;;;;0.30;0.30;;;14.20;65.50;;;;;;4995650;28;20261;-68
2022/04/06 15:17:06;;;;;;;0.30;0.30;;;14.10;66.80;;;;;;4995402;28;20206;-68
2022/04/06 15:19:34;;;;;;;0.30;0.30;;;14.10;66.30;;;;;;4995700;28;20203;-68
2022/04/06 15:22:01;;;;;;;0.35;0.35;;;14.10;68.60;;;;;;4995789;28;20193;-68
2022/04/06 15:24:28;;;;;;;0.30;0.30;;;14.00;67.60;;;;;;4995144;28;20729;-67
2022/04/06 15:26:55;;;;;;;0.40;0.40;;;13.90;66.00;;;;;;4995415;28;20208;-67
2022/04/06 15:29:22;;;;;;;0.30;0.30;;;13.90;66.40;;;;;;4995504;28;20209;-68
2022/04/06 15:31:50;;;;;;;0.30;0.30;;;14.00;67.50;;;;;;4995983;28;20206;-68
2022/04/06 15:39:43;;;;;;;0.20;0.20;;;14.00;65.70;;;;;;4995215;28;20210;-67
2022/04/06 15:42:10;;;;;;;0.20;0.20;;;13.90;66.70;;;;;;4995283;28;20285;-68
2022/04/06 15:44:37;;;;;;;0.30;0.30;;;13.90;67.20;;;;;;4995278;28;20306;-69
2022/04/06 15:47:05;;;;;;;0.32;0.32;;;13.80;69.00;;;;;;4995377;28;20209;-68
2022/04/06 15:49:33;;;;;;;0.30;0.30;;;13.80;71.40;;;;;;4994880;28;20535;-67
2022/04/06 15:52:02;;;;;;;0.22;0.22;;;;;;;;;;4994476;28;20254;-67
2022/04/06 15:54:28;;;;;;;0.30;0.30;;;13.70;72.00;;;;;;4994548;28;20226;-68
2022/04/06 15:56:56;;;;;;;0.30;0.30;;;13.70;70.90;;;;;;4994951;28;20203;-68
2022/04/06 15:59:23;;;;;;;0.30;0.30;;;13.60;70.20;;;;;;4995075;28;20298;-68
2022/04/06 16:01:50;;;;;;;0.30;0.30;;;13.60;70.30;;;;;;4994832;28;20237;-68
2022/04/06 16:04:16;;;;;;;0.20;0.20;;;13.60;69.80;;;;;;4995073;28;20228;-68
2022/04/06 16:06:43;;;;;;;0.20;0.20;;;13.60;71.40;;;;;;4994908;28;20226;-69
2022/04/06 16:09:12;;;;;;;0.25;0.25;;;13.70;71.80;;;;;;4995089;28;20202;-69
2022/04/06 16:11:40;;;;;;;0.25;0.25;;;13.70;71.90;;;;;;4994920;28;20203;-68
2022/04/06 16:14:07;;;;;;;0.60;0.30;;;13.80;72.90;;;;;;4995595;28;20590;-68
2022/04/06 16:16:33;;;;;;;1.20;0.40;;;13.80;73.80;;;;;;4994752;28;20229;-68
2022/04/06 16:19:01;;;;;;;0.40;0.40;;;13.90;74.40;;;;;;4995617;28;20213;-68
2022/04/06 16:21:28;;;;;;;0.40;0.40;;;13.90;73.40;;;;;;4994853;28;20203;-68
2022/04/06 16:23:56;;;;;;;0.32;0.32;;;13.90;73.00;;;;;;4994513;28;20203;-68
2022/04/06 16:26:24;;;;;;;0.30;0.30;;;13.80;74.60;;;;;;4994168;28;20206;-68
2022/04/06 16:28:51;;;;;;;0.32;0.32;;;13.80;76.60;;;;;;4994739;28;20202;-68
2022/04/06 16:31:18;;;;;;;0.40;0.40;;;13.70;77.20;;;;;;4994312;28;20670;-68
2022/04/06 16:33:45;;;;;;;0.40;0.40;;;13.60;79.40;;;;;;4994400;28;20230;-67
2022/04/06 16:36:12;;;;;;;0.35;0.32;;;13.50;80.70;;;;;;4994271;28;20223;-68
2022/04/06 16:38:40;;;;;;;0.30;0.30;;;13.40;83.70;;;;;;4994383;28;20225;-68
2022/04/06 16:41:08;;;;;;;0.35;0.35;;;13.50;88.70;;;;;;4994433;28;20285;-68
2022/04/06 16:43:37;;;;;;;0.30;0.30;;;13.40;88.00;;;;;;4994452;28;20693;-68
2022/04/06 16:46:05;;;;;;;0.73;0.40;;;13.40;89.20;;;;;;4994281;28;20203;-67
2022/04/06 16:48:31;;;;;;;0.47;0.47;;;13.30;88.10;;;;;;4994339;28;20202;-68
2022/04/06 16:53:43;;;;;;;0.50;0.50;;;13.20;89.80;;;;;;4993821;28;20237;-67
2022/04/06 16:56:10;;;;;;;0.43;0.43;;;13.10;91.00;;;;;;4994024;28;20213;-67
2022/04/06 16:58:41;;;;;;;0.40;0.40;;;13.00;92.20;;;;;;4994038;28;20234;-67
2022/04/06 17:01:08;;;;;;;0.47;0.47;;;13.00;91.40;;;;;;4994532;28;20245;-67
2022/04/06 17:03:35;;;;;;;0.55;0.50;;;12.90;91.80;;;;;;4994968;28;20542;-68
2022/04/06 17:06:02;;;;;;;0.50;0.50;;;12.90;93.10;;;;;;4998543;28;20209;-68
2022/04/06 17:08:29;;;;;;;0.47;0.47;;;12.80;94.30;;;;;;4998221;28;20209;-67
2022/04/06 17:10:56;;;;;;;0.40;0.40;;;12.70;93.70;;;;;;4998506;28;20209;-68
2022/04/06 17:13:23;;;;;;;0.40;0.40;;;12.60;95.30;;;;;;4998028;28;20206;-69
2022/04/06 17:15:52;;;;;;;0.40;0.40;;;12.60;98.10;;;;;;4998112;28;20255;-69
2022/04/06 17:18:19;;;;;;;0.40;0.40;;;12.50;98.00;;;;;;4998857;28;20725;-68
2022/04/06 17:20:46;;;;;;;0.50;0.50;;;12.40;99.90;;;;;;5001056;28;20206;-68
2022/04/06 17:23:13;;;;;;;0.40;0.40;;;12.30;99.90;;;;;;4999584;28;20213;-68
2022/04/06 17:25:40;;;;;;;0.40;0.40;;;12.20;99.90;;;;;;4997457;28;20305;-68
2022/04/06 17:28:07;;;;;;;0.50;0.50;;;12.20;99.90;;;;;;4997750;28;20209;-69